Time;durP1;ratioP1;P1;durP2;ratioP2;P2;SDS_P1;SDS_P2;PMS_P1;PMS_P2;Temp;Humidity;BMP_temperature;BMP_pressure;BME280_temperature;BME280_humidity;BME280_pressure;Samples;Min_cycle;Max_cycle;Signal;HPM_P1;HPM_P2
2021/11/20 00:00:28;;;;;;;;;;;8.50;99.90;;;;;;5072466;28;20282;-69
2021/11/20 00:02:54;;;;;;;;;;;8.60;99.90;;;;;;5073973;28;19911;-70
2021/11/20 00:05:24;;;;;;;;;;;8.60;99.90;;;;;;5073703;28;19904;-69
2021/11/20 00:07:50;;;;;;;;;;;8.50;99.90;;;;;;5072699;28;19911;-68
2021/11/20 00:10:17;;;;;;;;;;;8.50;99.90;;;;;;5072996;28;19908;-68
2021/11/20 00:12:43;;;;;;;;;;;8.40;99.90;;;;;;5074785;28;19912;-69
2021/11/20 00:15:11;;;;;;;;;;;8.30;99.90;;;;;;5073612;28;19979;-68
2021/11/20 00:17:37;;;;;;;;;;;8.30;99.90;;;;;;5073897;28;19999;-69
2021/11/20 00:20:05;;;;;;;;;;;8.30;99.90;;;;;;5074519;28;19947;-69
2021/11/20 00:22:32;;;;;;;;;;;8.30;99.90;;;;;;5073958;28;20374;-69
2021/11/20 00:25:04;;;;;;;;;;;8.30;99.90;;;;;;5073646;28;20251;-69
2021/11/20 00:27:37;;;;;;;;;;;8.30;99.90;;;;;;5073740;28;19904;-69
2021/11/20 00:30:15;;;;;;;;;;;8.40;99.90;;;;;;5072262;28;20371;-69
2021/11/20 00:32:45;;;;;;;;;;;8.40;99.90;;;;;;5073304;28;19909;-68
2021/11/20 00:35:13;;;;;;;;;;;8.50;99.90;;;;;;5072220;28;19965;-68
2021/11/20 00:37:39;;;;;;;;;;;8.60;99.90;;;;;;5073444;28;19932;-68
2021/11/20 00:40:07;;;;;;;;;;;8.50;99.90;;;;;;5072213;28;20359;-68
2021/11/20 00:42:32;;;;;;;;;;;8.40;99.90;;;;;;5074027;28;19916;-68
2021/11/20 00:44:58;;;;;;;;;;;8.40;99.90;;;;;;5073904;28;20287;-70
2021/11/20 00:47:25;;;;;;;;;;;8.50;99.90;;;;;;5073997;28;20262;-68
2021/11/20 00:49:50;;;;;;;;;;;8.40;99.90;;;;;;5073621;28;19908;-68
2021/11/20 00:52:16;;;;;;;;;;;8.30;99.90;;;;;;5071952;28;20256;-68
2021/11/20 00:54:42;;;;;;;;;;;8.40;99.90;;;;;;5073289;28;19908;-68
2021/11/20 00:57:09;;;;;;;;;;;8.40;99.90;;;;;;5073298;28;19911;-68
2021/11/20 00:59:35;;;;;;;;;;;8.30;99.90;;;;;;5073836;28;20361;-68
2021/11/20 01:02:01;;;;;;;;;;;8.40;99.90;;;;;;5073155;28;19905;-68
2021/11/20 01:04:28;;;;;;;;;;;8.40;99.90;;;;;;5073457;28;19904;-67
2021/11/20 01:06:54;;;;;;;;;;;8.20;99.90;;;;;;5073147;28;19904;-67
2021/11/20 01:09:22;;;;;;;;;;;8.20;99.90;;;;;;5073101;28;19908;-68
2021/11/20 01:11:52;;;;;;;;;;;8.40;99.90;;;;;;5072894;28;19914;-68
2021/11/20 01:14:18;;;;;;;;;;;8.50;99.90;;;;;;5073317;28;20359;-68
2021/11/20 01:16:44;;;;;;;;;;;8.50;99.90;;;;;;5073284;28;19904;-69
2021/11/20 01:19:11;;;;;;;;;;;8.60;99.90;;;;;;5076212;28;19905;-68
2021/11/20 01:21:37;;;;;;;;;;;8.60;99.90;;;;;;5076157;28;19911;-69
2021/11/20 01:24:04;;;;;;;;;;;8.50;99.90;;;;;;5080343;28;19908;-68
2021/11/20 01:26:29;;;;;;;;;;;8.60;99.90;;;;;;5082376;28;19904;-69
2021/11/20 01:28:56;;;;;;;;;;;8.50;99.90;;;;;;5084175;28;19911;-68
2021/11/20 01:31:22;;;;;;;;;;;8.40;99.90;;;;;;5082241;28;20310;-68
2021/11/20 01:33:48;;;;;;;;;;;8.30;99.90;;;;;;5083821;28;20317;-68
2021/11/20 01:36:16;;;;;;;;;;;8.30;99.90;;;;;;5082674;28;19904;-68
2021/11/20 01:38:42;;;;;;;;;;;8.20;99.90;;;;;;5082584;28;19909;-68
2021/11/20 01:41:07;;;;;;;;;;;8.40;99.90;;;;;;5078896;28;19904;-69
2021/11/20 01:43:33;;;;;;;;;;;8.30;99.90;;;;;;5077394;28;20325;-67
2021/11/20 01:46:01;;;;;;;;;;;8.20;99.90;;;;;;5076551;28;19904;-67
2021/11/20 01:48:45;;;;;;;;;;;8.20;99.90;;;;;;5078925;28;19911;-68
2021/11/20 01:51:13;;;;;;;;;;;8.20;99.90;;;;;;5078382;28;19904;-68
2021/11/20 01:53:57;;;;;;;;;;;8.10;99.90;;;;;;5077812;28;19908;-69
2021/11/20 01:56:41;;;;;;;;;;;8.20;99.90;;;;;;5079088;28;19904;-69
2021/11/20 01:59:13;;;;;;;;;;;8.30;99.90;;;;;;5077848;28;19904;-68
2021/11/20 02:01:43;;;;;;;;;;;8.30;99.90;;;;;;5076648;28;19988;-67
2021/11/20 02:04:13;;;;;;;;;;;8.30;99.90;;;;;;5075044;28;20381;-67
2021/11/20 02:06:49;;;;;;;;;;;8.20;99.90;;;;;;5076366;28;20358;-67
2021/11/20 02:09:18;;;;;;;;;;;8.20;99.90;;;;;;5074942;28;19904;-67
2021/11/20 02:11:52;;;;;;;;;;;8.20;99.90;;;;;;5076022;28;19916;-68
2021/11/20 02:14:18;;;;;;;;;;;8.20;99.90;;;;;;5076576;28;20276;-67
2021/11/20 02:16:46;;;;;;;;;;;8.20;99.90;;;;;;5076341;28;19904;-67
2021/11/20 02:19:14;;;;;;;;;;;8.30;99.90;;;;;;5076298;28;20008;-67
2021/11/20 02:21:45;;;;;;;;;;;8.20;99.90;;;;;;5075974;28;20417;-67
2021/11/20 02:24:11;;;;;;;;;;;8.20;99.90;;;;;;5076000;28;20327;-68
2021/11/20 02:26:36;;;;;;;;;;;8.20;99.90;;;;;;5075485;28;19916;-68
2021/11/20 02:29:05;;;;;;;;;;;8.20;99.90;;;;;;5075453;28;20283;-68
2021/11/20 02:31:30;;;;;;;;;;;8.20;99.90;;;;;;5075648;28;19908;-68
2021/11/20 02:33:56;;;;;;;;;;;8.20;99.90;;;;;;5075494;28;20379;-68
2021/11/20 02:36:22;;;;;;;;;;;8.20;99.90;;;;;;5075483;28;19920;-68
2021/11/20 02:38:51;;;;;;;;;;;8.20;99.90;;;;;;5075512;28;19904;-68
2021/11/20 02:41:17;;;;;;;;;;;8.30;99.90;;;;;;5073891;28;20013;-68
2021/11/20 02:43:45;;;;;;;;;;;8.40;99.90;;;;;;5074080;28;19912;-67
2021/11/20 02:46:12;;;;;;;;;;;8.30;99.90;;;;;;5075452;28;19904;-68
2021/11/20 02:48:38;;;;;;;;;;;8.30;99.90;;;;;;5075148;28;19912;-68
2021/11/20 02:51:06;;;;;;;;;;;8.30;99.90;;;;;;5075368;28;19904;-68
2021/11/20 02:53:34;;;;;;;;;;;8.20;99.90;;;;;;5075139;28;19957;-68
2021/11/20 02:56:00;;;;;;;;;;;8.30;99.90;;;;;;5075465;28;20304;-68
2021/11/20 02:58:27;;;;;;;;;;;8.20;99.90;;;;;;5075250;28;19904;-68
2021/11/20 03:00:56;;;;;;;;;;;8.20;99.90;;;;;;5075049;28;20267;-68
2021/11/20 03:03:22;;;;;;;;;;;8.10;99.90;;;;;;5074774;28;20380;-68
2021/11/20 03:05:47;;;;;;;;;;;8.10;99.90;;;;;;5073671;28;19947;-68
2021/11/20 03:08:13;;;;;;;;;;;8.20;99.90;;;;;;5073657;28;19905;-68
2021/11/20 03:10:38;;;;;;;;;;;8.10;99.90;;;;;;5073552;28;20302;-68
2021/11/20 03:13:04;;;;;;;;;;;8.10;99.90;;;;;;5074686;28;19935;-68
2021/11/20 03:15:30;;;;;;;;;;;8.10;99.90;;;;;;5074811;28;19904;-68
2021/11/20 03:17:55;;;;;;;;;;;8.10;99.90;;;;;;5074846;28;19928;-68
2021/11/20 03:20:21;;;;;;;;;;;8.00;99.90;;;;;;5074714;28;20271;-68
2021/11/20 03:22:57;;;;;;;;;;;8.10;99.90;;;;;;5074806;28;19915;-69
2021/11/20 03:25:23;;;;;;;;;;;8.10;99.90;;;;;;5074762;28;19911;-68
2021/11/20 03:27:49;;;;;;;;;;;8.10;99.90;;;;;;5074399;28;19971;-68
2021/11/20 03:30:16;;;;;;;;;;;8.10;99.90;;;;;;5074372;28;19905;-68
2021/11/20 03:32:41;;;;;;;;;;;8.10;99.90;;;;;;5074245;28;20363;-68
2021/11/20 03:35:07;;;;;;;;;;;8.10;99.90;;;;;;5073028;28;19950;-68
2021/11/20 03:37:33;;;;;;;;;;;8.10;99.90;;;;;;5074314;28;19905;-69
2021/11/20 03:39:59;;;;;;;;;;;8.10;99.90;;;;;;5073097;28;19928;-67
2021/11/20 03:42:25;;;;;;;;;;;8.30;99.90;;;;;;5074123;28;19912;-67
2021/11/20 03:44:50;;;;;;;;;;;8.30;99.90;;;;;;5074384;28;20061;-67
2021/11/20 03:47:16;;;;;;;;;;;8.10;99.90;;;;;;5072755;28;19905;-67
2021/11/20 03:49:42;;;;;;;;;;;8.10;99.90;;;;;;5084360;28;20134;-67
2021/11/20 03:52:08;;;;;;;;;;;8.00;99.90;;;;;;5084698;28;19954;-67
2021/11/20 03:54:34;;;;;;;;;;;8.00;99.90;;;;;;5082590;28;20283;-67
2021/11/20 03:57:00;;;;;;;;;;;8.00;99.90;;;;;;5082289;28;20263;-67
2021/11/20 03:59:25;;;;;;;;;;;8.10;99.90;;;;;;5079994;28;19905;-67
2021/11/20 04:01:51;;;;;;;;;;;8.10;99.90;;;;;;5080131;28;19912;-67
2021/11/20 04:04:16;;;;;;;;;;;8.40;99.90;;;;;;5081926;28;20359;-68
2021/11/20 04:06:42;;;;;;;;;;;8.30;99.90;;;;;;5078302;28;19908;-68
2021/11/20 04:09:12;;;;;;;;;;;8.30;99.90;;;;;;5078631;28;19904;-67
2021/11/20 04:11:38;;;;;;;;;;;8.30;99.90;;;;;;5073741;28;20303;-68
2021/11/20 04:14:04;;;;;;;;;;;8.30;99.90;;;;;;5074432;28;19904;-68
2021/11/20 04:16:30;;;;;;;;;;;8.40;99.90;;;;;;5074508;28;20412;-67
2021/11/20 04:18:56;;;;;;;;;;;8.30;99.90;;;;;;5072763;28;19904;-67
2021/11/20 04:21:22;;;;;;;;;;;8.30;99.90;;;;;;5074523;28;20307;-68
2021/11/20 04:23:49;;;;;;;;;;;8.20;99.90;;;;;;5074060;28;19905;-69
2021/11/20 04:26:16;;;;;;;;;;;8.20;99.90;;;;;;5073866;28;19911;-69
2021/11/20 04:28:42;;;;;;;;;;;8.40;99.90;;;;;;5073759;28;19986;-67
2021/11/20 04:31:08;;;;;;;;;;;8.50;99.90;;;;;;5072446;28;19904;-67
2021/11/20 04:33:34;;;;;;;;;;;8.40;99.90;;;;;;5072559;28;20375;-67
2021/11/20 04:35:59;;;;;;;;;;;8.30;99.90;;;;;;5072170;28;19930;-68
2021/11/20 04:38:25;;;;;;;;;;;8.30;99.90;;;;;;5072405;28;19905;-68
2021/11/20 04:40:50;;;;;;;;;;;8.40;99.90;;;;;;5073320;28;20274;-68
2021/11/20 04:43:16;;;;;;;;;;;8.30;99.90;;;;;;5073459;28;19916;-67
2021/11/20 04:45:42;;;;;;;;;;;8.30;99.90;;;;;;5073403;28;19908;-68
2021/11/20 04:48:08;;;;;;;;;;;8.20;99.90;;;;;;5073613;28;20421;-68
2021/11/20 04:50:34;;;;;;;;;;;8.10;99.90;;;;;;5073384;28;19904;-68
2021/11/20 04:53:00;;;;;;;;;;;8.10;99.90;;;;;;5073119;28;19957;-68
2021/11/20 04:55:26;;;;;;;;;;;8.20;99.90;;;;;;5073432;28;19908;-68
2021/11/20 04:57:52;;;;;;;;;;;8.30;99.90;;;;;;5073213;28;19909;-68
2021/11/20 05:00:28;;;;;;;;;;;8.20;99.90;;;;;;5076633;28;20354;-68
2021/11/20 05:02:55;;;;;;;;;;;8.20;99.90;;;;;;5077350;28;19905;-68
2021/11/20 05:05:20;;;;;;;;;;;8.20;99.90;;;;;;5076024;28;20351;-68
2021/11/20 05:07:46;;;;;;;;;;;8.10;99.90;;;;;;5077265;28;19904;-68
2021/11/20 05:10:12;;;;;;;;;;;8.10;99.90;;;;;;5075886;28;19958;-68
2021/11/20 05:12:38;;;;;;;;;;;8.00;99.90;;;;;;5075940;28;19912;-68
2021/11/20 05:15:06;;;;;;;;;;;7.90;99.90;;;;;;5077399;28;19919;-68
2021/11/20 05:17:31;;;;;;;;;;;7.80;99.90;;;;;;5076787;28;19904;-68
2021/11/20 05:19:57;;;;;;;;;;;7.80;99.90;;;;;;5078171;28;19950;-68
2021/11/20 05:22:22;;;;;;;;;;;8.00;99.90;;;;;;5078084;28;20049;-68
2021/11/20 05:24:48;;;;;;;;;;;7.90;99.90;;;;;;5077932;28;19904;-68
2021/11/20 05:27:14;;;;;;;;;;;7.80;99.90;;;;;;5076697;28;20366;-68
2021/11/20 05:32:08;;;;;;;;;;;7.70;99.90;;;;;;5078054;28;20003;-68
2021/11/20 05:34:35;;;;;;;;;;;7.80;99.90;;;;;;5075580;28;19997;-68
2021/11/20 05:37:00;;;;;;;;;;;7.60;99.90;;;;;;5077084;28;19931;-68
2021/11/20 05:39:26;;;;;;;;;;;7.70;99.90;;;;;;5076739;28;19904;-68
2021/11/20 05:41:52;;;;;;;;;;;7.60;99.90;;;;;;5075115;28;19916;-68
2021/11/20 05:44:18;;;;;;;;;;;7.50;99.90;;;;;;5075476;28;19931;-68
2021/11/20 05:46:44;;;;;;;;;;;7.40;99.90;;;;;;5075526;28;19908;-67
2021/11/20 05:49:09;;;;;;;;;;;7.30;99.90;;;;;;5075009;28;19904;-68
2021/11/20 05:51:36;;;;;;;;;;;7.30;99.90;;;;;;5075101;28;20055;-68
2021/11/20 05:54:03;;;;;;;;;;;7.20;99.90;;;;;;5076193;28;19904;-67
2021/11/20 05:56:29;;;;;;;;;;;7.30;99.90;;;;;;5075401;28;19995;-68
2021/11/20 05:58:55;;;;;;;;;;;7.20;99.90;;;;;;5075523;28;19911;-67
2021/11/20 06:01:20;;;;;;;;;;;7.20;99.90;;;;;;5076878;28;19904;-68
2021/11/20 06:03:46;;;;;;;;;;;7.30;99.90;;;;;;5076489;28;19908;-68
2021/11/20 06:06:12;;;;;;;;;;;7.30;99.90;;;;;;5074592;28;19909;-68
2021/11/20 06:08:38;;;;;;;;;;;7.20;99.90;;;;;;5075835;28;19926;-67
2021/11/20 06:11:04;;;;;;;;;;;7.10;99.90;;;;;;5075546;28;19947;-67
2021/11/20 06:13:30;;;;;;;;;;;7.30;99.90;;;;;;5075706;28;20359;-68
2021/11/20 06:15:56;;;;;;;;;;;7.30;99.90;;;;;;5075950;28;19943;-68
2021/11/20 06:18:22;;;;;;;;;;;7.20;99.90;;;;;;5074534;28;19954;-67
2021/11/20 06:20:48;;;;;;;;;;;7.20;99.90;;;;;;5075800;28;19904;-68
2021/11/20 06:23:14;;;;;;;;;;;7.10;99.90;;;;;;5074803;28;19954;-67
2021/11/20 06:25:40;;;;;;;;;;;7.00;99.90;;;;;;5075952;28;19911;-67
2021/11/20 06:28:06;;;;;;;;;;;7.00;99.90;;;;;;5075503;28;20384;-67
2021/11/20 06:30:32;;;;;;;;;;;7.00;99.90;;;;;;5075618;28;19904;-67
2021/11/20 06:32:58;;;;;;;;;;;7.00;99.90;;;;;;5075312;28;19957;-67
2021/11/20 06:35:25;;;;;;;;;;;7.10;99.90;;;;;;5075413;28;19904;-67
2021/11/20 06:37:51;;;;;;;;;;;7.00;99.90;;;;;;5077104;28;20011;-68
2021/11/20 06:40:22;;;;;;;;;;;6.90;99.90;;;;;;5075304;28;19962;-68
2021/11/20 06:42:48;;;;;;;;;;;6.90;99.90;;;;;;5075151;28;19932;-68
2021/11/20 06:45:15;;;;;;;;;;;6.80;99.90;;;;;;5075325;28;19927;-68
2021/11/20 06:47:41;;;;;;;;;;;6.70;99.90;;;;;;5073958;28;19904;-67
2021/11/20 06:50:07;;;;;;;;;;;6.70;99.90;;;;;;5075037;28;19912;-67
2021/11/20 06:52:32;;;;;;;;;;;6.60;99.90;;;;;;5075074;28;19912;-67
2021/11/20 06:54:58;;;;;;;;;;;6.60;99.90;;;;;;5073832;28;19905;-67
2021/11/20 06:57:47;;;;;;;;;;;6.60;99.90;;;;;;5073702;28;19904;-67
2021/11/20 07:00:27;;;;;;;;;;;6.50;99.90;;;;;;5078842;28;19909;-67
2021/11/20 07:02:57;;;;;;;;;;;6.50;99.90;;;;;;5082343;28;19908;-67
2021/11/20 07:05:23;;;;;;;;;;;6.50;99.90;;;;;;5081131;28;19908;-67
2021/11/20 07:07:49;;;;;;;;;;;6.50;99.90;;;;;;5078419;28;19904;-67
2021/11/20 07:10:16;;;;;;;;;;;6.60;99.90;;;;;;5075984;28;19911;-67
2021/11/20 07:12:44;;;;;;;;;;;6.60;99.90;;;;;;5074754;28;20078;-67
2021/11/20 07:15:11;;;;;;;;;;;6.70;99.90;;;;;;5075018;28;19904;-67
2021/11/20 07:17:36;;;;;;;;;;;6.70;99.90;;;;;;5073277;28;20347;-67
2021/11/20 07:20:03;;;;;;;;;;;6.70;99.90;;;;;;5074684;28;19916;-67
2021/11/20 07:22:28;;;;;;;;;;;6.70;99.90;;;;;;5073837;28;19910;-67
2021/11/20 07:24:54;;;;;;;;;;;6.70;99.90;;;;;;5074307;28;19948;-67
2021/11/20 07:27:20;;;;;;;;;;;6.70;99.90;;;;;;5077636;28;20324;-67
2021/11/20 07:29:45;;;;;;;;;;;6.80;99.90;;;;;;5076534;28;20347;-67
2021/11/20 07:32:11;;;;;;;;;;;6.80;99.90;;;;;;5076453;28;19915;-67
2021/11/20 07:34:37;;;;;;;;;;;6.80;99.90;;;;;;5075735;28;19904;-68
2021/11/20 07:37:03;;;;;;;;;;;6.80;99.90;;;;;;5073765;28;20272;-68
2021/11/20 07:39:28;;;;;;;;;;;6.80;99.90;;;;;;5074875;28;20114;-68
2021/11/20 07:41:54;;;;;;;;;;;6.90;99.90;;;;;;5073036;28;19912;-67
2021/11/20 07:44:20;;;;;;;;;;;6.80;99.90;;;;;;5075361;28;19928;-67
2021/11/20 07:46:46;;;;;;;;;;;6.80;99.90;;;;;;5076509;28;19904;-68
2021/11/20 07:49:12;;;;;;;;;;;7.00;99.90;;;;;;5075134;28;19908;-67
2021/11/20 07:51:37;;;;;;;;;;;7.00;99.90;;;;;;5075083;28;19908;-68
2021/11/20 07:54:03;;;;;;;;;;;7.00;99.90;;;;;;5073233;28;19904;-69
2021/11/20 07:56:29;;;;;;;;;;;7.20;99.90;;;;;;5074438;28;19909;-68
2021/11/20 07:58:55;;;;;;;;;;;7.20;99.90;;;;;;5074384;28;19986;-69
2021/11/20 08:01:23;;;;;;;;;;;7.10;99.90;;;;;;5074324;28;20347;-69
2021/11/20 08:03:50;;;;;;;;;;;7.10;99.90;;;;;;5075725;28;20010;-69
2021/11/20 08:06:15;;;;;;;;;;;7.00;99.90;;;;;;5074021;28;19911;-69
2021/11/20 08:08:41;;;;;;;;;;;6.90;99.90;;;;;;5074545;28;19905;-68
2021/11/20 08:11:07;;;;;;;;;;;7.00;99.90;;;;;;5073049;28;19905;-68
2021/11/20 08:13:35;;;;;;;;;;;6.90;99.90;;;;;;5074790;28;19938;-67
2021/11/20 08:16:01;;;;;;;;;;;7.00;99.90;;;;;;5074221;28;19927;-68
2021/11/20 08:18:26;;;;;;;;;;;7.10;99.90;;;;;;5072818;28;20371;-70
2021/11/20 08:20:52;;;;;;;;;;;7.10;99.90;;;;;;5073918;28;19930;-69
2021/11/20 08:23:17;;;;;;;;;;;7.30;99.90;;;;;;5072632;28;20386;-69
2021/11/20 08:25:45;;;;;;;;;;;7.40;99.90;;;;;;5073758;28;19912;-68
2021/11/20 08:28:12;;;;;;;;;;;7.50;99.90;;;;;;5072682;28;19957;-69
2021/11/20 08:30:38;;;;;;;;;;;7.60;99.90;;;;;;5071047;28;19911;-69
2021/11/20 08:33:03;;;;;;;;;;;7.70;99.90;;;;;;5073644;28;19908;-68
2021/11/20 08:35:29;;;;;;;;;;;7.70;99.90;;;;;;5073635;28;20054;-68
2021/11/20 08:37:55;;;;;;;;;;;7.70;99.90;;;;;;5074371;28;19954;-68
2021/11/20 08:40:24;;;;;;;;;;;7.80;99.90;;;;;;5074067;28;19904;-69
2021/11/20 08:42:49;;;;;;;;;;;7.80;99.90;;;;;;5072448;28;19917;-68
2021/11/20 08:45:19;;;;;;;;;;;7.70;99.90;;;;;;5072750;28;19931;-68
2021/11/20 08:47:46;;;;;;;;;;;7.70;99.90;;;;;;5073646;28;19912;-68
2021/11/20 08:50:14;;;;;;;;;;;7.60;99.90;;;;;;5074062;28;19904;-68
2021/11/20 08:52:40;;;;;;;;;;;7.60;99.90;;;;;;5073436;28;20402;-68
2021/11/20 08:55:06;;;;;;;;;;;7.60;99.90;;;;;;5072522;28;19905;-69
2021/11/20 08:57:32;;;;;;;;;;;7.60;99.90;;;;;;5072490;28;19927;-68
2021/11/20 08:59:57;;;;;;;;;;;7.60;99.90;;;;;;5074169;28;19905;-69
2021/11/20 09:02:34;;;;;;;;;;;7.80;99.90;;;;;;5073262;28;19916;-69
2021/11/20 09:05:05;;;;;;;;;;;7.70;99.90;;;;;;5074533;28;19986;-69
2021/11/20 09:07:43;;;;;;;;;;;7.80;99.90;;;;;;5074240;28;20359;-69
2021/11/20 09:10:26;;;;;;;;;;;7.80;99.90;;;;;;5075746;28;20050;-69
2021/11/20 09:12:51;;;;;;;;;;;7.80;99.90;;;;;;5072514;28;20293;-68
2021/11/20 09:15:20;;;;;;;;;;;7.80;99.90;;;;;;5073873;28;19904;-69
2021/11/20 09:17:47;;;;;;;;;;;7.70;99.90;;;;;;5074074;28;19909;-69
2021/11/20 09:20:12;;;;;;;;;;;7.80;99.90;;;;;;5073578;28;19908;-69
2021/11/20 09:22:38;;;;;;;;;;;7.80;99.90;;;;;;5073546;28;19983;-69
2021/11/20 09:25:05;;;;;;;;;;;7.80;99.90;;;;;;5073828;28;20281;-68
2021/11/20 09:27:31;;;;;;;;;;;7.80;99.90;;;;;;5072193;28;19970;-69
2021/11/20 09:29:56;;;;;;;;;;;7.90;99.90;;;;;;5072066;28;20363;-69
2021/11/20 09:32:22;;;;;;;;;;;8.00;99.90;;;;;;5072248;28;19959;-67
2021/11/20 09:34:47;;;;;;;;;;;8.10;99.90;;;;;;5073664;28;19908;-68
2021/11/20 09:37:15;;;;;;;;;;;8.10;99.90;;;;;;5073172;28;20050;-67
2021/11/20 09:39:41;;;;;;;;;;;8.20;99.90;;;;;;5071731;28;20011;-68
2021/11/20 09:42:22;;;;;;;;;;;8.30;99.90;;;;;;5072991;28;19924;-68
2021/11/20 09:44:49;;;;;;;;;;;8.10;99.90;;;;;;5074318;28;19949;-66
2021/11/20 09:47:34;;;;;;;;;;;8.10;99.90;;;;;;5076928;28;19995;-65
2021/11/20 09:50:12;;;;;;;;;;;8.10;99.90;;;;;;5078028;28;19923;-66
2021/11/20 09:52:38;;;;;;;;;;;8.00;99.90;;;;;;5076287;28;19908;-65
2021/11/20 09:55:05;;;;;;;;;;;7.90;99.90;;;;;;5077267;28;19927;-66
2021/11/20 09:57:33;;;;;;;;;;;8.00;99.90;;;;;;5077028;28;19911;-65
2021/11/20 09:59:59;;;;;;;;;;;8.00;99.90;;;;;;5075666;28;19985;-67
2021/11/20 10:02:27;;;;;;;;;;;8.10;99.90;;;;;;5075471;28;19904;-67
2021/11/20 10:04:53;;;;;;;;;;;8.40;99.90;;;;;;5076613;28;19908;-65
2021/11/20 10:07:33;;;;;;;;;;;8.30;99.90;;;;;;5076575;28;19912;-65
2021/11/20 10:10:15;;;;;;;;;;;8.30;99.90;;;;;;5076129;28;20011;-66
2021/11/20 10:12:41;;;;;;;;;;;8.40;99.90;;;;;;5075822;28;19915;-66
2021/11/20 10:15:13;;;;;;;;;;;8.50;99.90;;;;;;5076025;28;19904;-66
2021/11/20 10:17:41;;;;;;;;;;;8.50;99.90;;;;;;5074458;28;19911;-66
2021/11/20 10:20:16;;;;;;;;;;;8.50;99.90;;;;;;5076230;28;20363;-66
2021/11/20 10:22:51;;;;;;;;;;;8.50;99.90;;;;;;5076477;28;19919;-66
2021/11/20 10:25:16;;;;;;;;;;;8.60;99.90;;;;;;5077448;28;19905;-67
2021/11/20 10:27:58;;;;;;;;;;;8.80;99.90;;;;;;5076283;28;20385;-64
2021/11/20 10:30:53;;;;;;;;;;;8.90;99.90;;;;;;5075604;28;19952;-67
2021/11/20 10:33:41;;;;;;;;;;;9.00;99.90;;;;;;5058131;28;20011;-67
2021/11/20 10:36:13;;;;;;;;;;;9.10;99.90;;;;;;5061234;28;19911;-67
2021/11/20 10:38:43;;;;;;;;;;;9.20;99.90;;;;;;5075903;28;20275;-68
2021/11/20 10:41:11;;;;;;;;;;;9.30;99.90;;;;;;5075852;28;19905;-68
2021/11/20 10:43:37;;;;;;;;;;;9.40;99.90;;;;;;5081563;28;19908;-66
2021/11/20 10:46:15;;;;;;;;;;;9.40;99.90;;;;;;5092920;28;19904;-67
2021/11/20 10:48:59;;;;;;;;;;;9.50;99.90;;;;;;5093555;28;19905;-67
2021/11/20 10:51:29;;;;;;;;;;;9.50;99.90;;;;;;5091522;28;19908;-67
2021/11/20 10:54:09;;;;;;;;;;;9.60;99.90;;;;;;5085170;28;19912;-68
2021/11/20 10:56:35;;;;;;;;;;;9.50;99.90;;;;;;5078035;28;19911;-67
2021/11/20 10:59:19;;;;;;;;;;;9.40;99.90;;;;;;5077918;28;19999;-67
2021/11/20 11:02:00;;;;;;;;;;;9.20;99.90;;;;;;5076203;28;19904;-68
2021/11/20 11:04:51;;;;;;;;;;;9.20;99.90;;;;;;5075951;28;19904;-68
2021/11/20 11:07:46;;;;;;;;;;;9.20;99.90;;;;;;5072214;28;19912;-68
2021/11/20 11:10:15;;;;;;;;;;;9.30;99.90;;;;;;5059549;28;19912;-68
2021/11/20 11:12:43;;;;;;;;;;;9.30;99.90;;;;;;5077807;28;20011;-67
2021/11/20 11:15:27;;;;;;;;;;;9.40;99.90;;;;;;5077269;28;19994;-68
2021/11/20 11:18:12;;;;;;;;;;;9.50;99.90;;;;;;5075070;28;19934;-68
2021/11/20 11:20:56;;;;;;;;;;;9.50;99.90;;;;;;5074038;28;20255;-68
2021/11/20 11:23:40;;;;;;;;;;;9.50;99.90;;;;;;5073015;28;19905;-67
2021/11/20 11:26:07;;;;;;;;;;;9.50;99.90;;;;;;5074585;28;20385;-67
2021/11/20 11:28:39;;;;;;;;;;;9.50;99.90;;;;;;5074893;28;19908;-66
2021/11/20 11:31:10;;;;;;;;;;;9.60;99.90;;;;;;5074888;28;19999;-67
2021/11/20 11:33:37;;;;;;;;;;;9.20;99.90;;;;;;5074397;28;19908;-67
2021/11/20 11:36:10;;;;;;;;;;;9.40;99.90;;;;;;5075263;28;19908;-67
2021/11/20 11:39:02;;;;;;;;;;;9.30;99.90;;;;;;5075278;28;20350;-67
2021/11/20 11:41:47;;;;;;;;;;;9.30;99.90;;;;;;5035206;28;19915;-67
2021/11/20 11:44:28;;;;;;;;;;;9.30;99.90;;;;;;5074761;28;19912;-67
2021/11/20 11:46:56;;;;;;;;;;;9.50;99.90;;;;;;5074283;28;19904;-67
2021/11/20 11:49:26;;;;;;;;;;;9.60;99.90;;;;;;5073921;28;19963;-67
2021/11/20 11:52:18;;;;;;;;;;;9.70;99.90;;;;;;5072424;28;20430;-67
2021/11/20 11:54:43;;;;;;;;;;;9.80;99.90;;;;;;5072466;28;19905;-67
2021/11/20 11:57:12;;;;;;;;;;;9.80;99.90;;;;;;5072545;28;19912;-67
2021/11/20 11:59:50;;;;;;;;;;;9.90;99.90;;;;;;5073870;28;19929;-67
2021/11/20 12:02:18;;;;;;;;;;;10.00;99.90;;;;;;5072586;28;19912;-67
2021/11/20 12:04:55;;;;;;;;;;;10.20;99.90;;;;;;5074068;28;19905;-67
2021/11/20 12:07:24;;;;;;;;;;;10.20;99.90;;;;;;5073494;28;19905;-67
2021/11/20 12:09:51;;;;;;;;;;;9.90;99.90;;;;;;5073565;28;20405;-67
2021/11/20 12:12:31;;;;;;;;;;;9.70;99.90;;;;;;5073584;28;19932;-66
2021/11/20 12:15:15;;;;;;;;;;;9.70;99.90;;;;;;5072334;28;20277;-69
2021/11/20 12:17:53;;;;;;;;;;;9.60;99.90;;;;;;5073973;28;19905;-68
2021/11/20 12:20:38;;;;;;;;;;;9.70;99.90;;;;;;5079896;28;20400;-68
2021/11/20 12:23:23;;;;;;;;;;;9.60;99.90;;;;;;5080807;28;19911;-66
2021/11/20 12:25:53;;;;;;;;;;;9.50;99.90;;;;;;5081188;28;19944;-67
2021/11/20 12:28:34;;;;;;;;;;;9.50;99.90;;;;;;5078645;28;19904;-67
2021/11/20 12:31:18;;;;;;;;;;;9.40;99.90;;;;;;5074162;28;19912;-66
2021/11/20 12:33:47;;;;;;;;;;;9.60;99.90;;;;;;5072487;28;19912;-66
2021/11/20 12:36:18;;;;;;;;;;;9.70;99.90;;;;;;5074133;28;19936;-67
2021/11/20 12:39:01;;;;;;;;;;;9.70;99.90;;;;;;5073841;28;19991;-68
2021/11/20 12:41:45;;;;;;;;;;;9.80;99.90;;;;;;5074102;28;19913;-67
2021/11/20 12:44:23;;;;;;;;;;;9.80;99.90;;;;;;5072408;28;20329;-67
2021/11/20 12:47:07;;;;;;;;;;;9.80;99.90;;;;;;5073980;28;19905;-67
2021/11/20 12:49:41;;;;;;;;;;;9.60;99.90;;;;;;5073442;28;19991;-67
2021/11/20 12:52:18;;;;;;;;;;;9.70;99.90;;;;;;5073507;28;19951;-67
2021/11/20 12:55:03;;;;;;;;;;;9.80;99.90;;;;;;5072494;28;19954;-67
2021/11/20 12:57:28;;;;;;;;;;;9.80;99.90;;;;;;5074031;28;19998;-68
2021/11/20 13:00:10;;;;;;;;;;;9.90;99.90;;;;;;5074393;28;20378;-68
2021/11/20 13:02:36;;;;;;;;;;;10.00;99.90;;;;;;5072498;28;19905;-67
2021/11/20 13:05:23;;;;;;;;;;;9.90;99.90;;;;;;5073265;28;19905;-68
2021/11/20 13:07:50;;;;;;;;;;;9.90;99.90;;;;;;5073356;28;19981;-67
2021/11/20 13:10:25;;;;;;;;;;;10.10;99.90;;;;;;5073508;28;20382;-68
2021/11/20 13:12:54;;;;;;;;;;;10.10;99.90;;;;;;5073136;28;19916;-67
2021/11/20 13:15:22;;;;;;;;;;;10.00;99.90;;;;;;5071942;28;19911;-67
2021/11/20 13:17:53;;;;;;;;;;;10.10;99.90;;;;;;5073513;28;19904;-67
2021/11/20 13:20:25;;;;;;;;;;;10.20;99.90;;;;;;5074554;28;20326;-67
2021/11/20 13:23:09;;;;;;;;;;;10.10;99.90;;;;;;5076655;28;19909;-65
2021/11/20 13:25:50;;;;;;;;;;;10.20;99.90;;;;;;5076863;28;19904;-67
2021/11/20 13:28:15;;;;;;;;;;;10.30;99.90;;;;;;5076677;28;19908;-67
2021/11/20 13:30:43;;;;;;;;;;;10.30;99.90;;;;;;5077091;28;20325;-67
2021/11/20 13:33:09;;;;;;;;;;;10.20;99.90;;;;;;5075292;28;19908;-68
2021/11/20 13:35:38;;;;;;;;;;;10.10;99.90;;;;;;5076625;28;19987;-68
2021/11/20 13:38:06;;;;;;;;;;;10.10;99.90;;;;;;5076808;28;19908;-67
2021/11/20 13:40:37;;;;;;;;;;;9.80;99.90;;;;;;5075157;28;19982;-68
2021/11/20 13:43:03;;;;;;;;;;;9.60;99.90;;;;;;5076361;28;19920;-67
2021/11/20 13:45:30;;;;;;;;;;;9.60;99.90;;;;;;5076558;28;20363;-67
2021/11/20 13:47:55;;;;;;;;;;;9.50;99.90;;;;;;5076465;28;19908;-68
2021/11/20 13:50:21;;;;;;;;;;;9.50;99.90;;;;;;5076364;28;19904;-67
2021/11/20 13:52:47;;;;;;;;;;;9.40;99.90;;;;;;5076120;28;19914;-68
2021/11/20 13:55:14;;;;;;;;;;;9.40;99.90;;;;;;5076220;28;19908;-68
2021/11/20 13:57:41;;;;;;;;;;;9.30;99.90;;;;;;5076293;28;19904;-67
2021/11/20 14:00:09;;;;;;;;;;;9.30;99.90;;;;;;5076027;28;19912;-66
2021/11/20 14:02:41;;;;;;;;;;;9.40;99.90;;;;;;5076569;28;19904;-67
2021/11/20 14:05:07;;;;;;;;;;;9.50;99.90;;;;;;5075199;28;20327;-67
2021/11/20 14:07:35;;;;;;;;;;;9.50;99.90;;;;;;5076566;28;19924;-67
2021/11/20 14:10:02;;;;;;;;;;;9.60;99.90;;;;;;5076564;28;20255;-69
2021/11/20 14:12:49;;;;;;;;;;;9.60;99.90;;;;;;5076242;28;19909;-68
2021/11/20 14:15:15;;;;;;;;;;;9.60;99.90;;;;;;5076389;28;19904;-71
2021/11/20 14:17:40;;;;;;;;;;;9.50;99.90;;;;;;5075822;28;19969;-69
2021/11/20 14:20:13;;;;;;;;;;;9.50;99.90;;;;;;5074829;28;20220;-69
2021/11/20 14:22:39;;;;;;;;;;;9.40;99.90;;;;;;5076582;28;20362;-68
2021/11/20 14:25:17;;;;;;;;;;;9.40;99.90;;;;;;5076011;28;20325;-67
2021/11/20 14:27:52;;;;;;;;;;;9.30;99.90;;;;;;5076001;28;19908;-68
2021/11/20 14:30:17;;;;;;;;;;;9.40;99.90;;;;;;5075403;28;19954;-68
2021/11/20 14:32:43;;;;;;;;;;;9.60;99.90;;;;;;5075448;28;20308;-67
2021/11/20 14:35:10;;;;;;;;;;;9.70;99.90;;;;;;5075814;28;20378;-66
2021/11/20 14:37:35;;;;;;;;;;;9.60;99.90;;;;;;5075997;28;20420;-66
2021/11/20 14:40:05;;;;;;;;;;;9.50;99.90;;;;;;5076066;28;19927;-68
2021/11/20 14:42:33;;;;;;;;;;;9.40;99.90;;;;;;5075551;28;19923;-67